sensor_id;sensor_type;location;lat;lon;timestamp;pressure;altitude;pressure_sealevel;temperature;humidity
12868;BME280;33517;49.866;8.320;2022-07-30T00:01:05;100490.81;;;20.44;67.53
12868;BME280;33517;49.866;8.320;2022-07-30T00:03:57;100490.75;;;20.33;66.94
12868;BME280;33517;49.866;8.320;2022-07-30T00:06:49;100477.34;;;20.03;67.81
12868;BME280;33517;49.866;8.320;2022-07-30T00:09:41;100485.91;;;19.93;68.14
12868;BME280;33517;49.866;8.320;2022-07-30T00:12:34;100482.63;;;19.91;67.75
12868;BME280;33517;49.866;8.320;2022-07-30T00:15:26;100475.75;;;19.84;68.39
12868;BME280;33517;49.866;8.320;2022-07-30T00:18:18;100482.03;;;19.71;68.47
12868;BME280;33517;49.866;8.320;2022-07-30T00:21:10;100475.13;;;19.64;67.64
12868;BME280;33517;49.866;8.320;2022-07-30T00:24:03;100476.25;;;19.56;68.50
12868;BME280;33517;49.866;8.320;2022-07-30T00:26:55;100481.22;;;19.53;68.29
12868;BME280;33517;49.866;8.320;2022-07-30T00:29:48;100471.22;;;19.48;68.23
12868;BME280;33517;49.866;8.320;2022-07-30T00:32:40;100469.94;;;19.51;68.49
12868;BME280;33517;49.866;8.320;2022-07-30T00:35:32;100469.56;;;19.47;68.53
12868;BME280;33517;49.866;8.320;2022-07-30T00:38:24;100465.94;;;19.42;68.99
12868;BME280;33517;49.866;8.320;2022-07-30T00:41:16;100464.31;;;19.59;72.17
12868;BME280;33517;49.866;8.320;2022-07-30T00:44:08;100461.63;;;19.95;69.98
12868;BME280;33517;49.866;8.320;2022-07-30T00:47:01;100451.03;;;19.88;68.41
12868;BME280;33517;49.866;8.320;2022-07-30T00:49:53;100447.38;;;19.83;68.87
12868;BME280;33517;49.866;8.320;2022-07-30T00:52:45;100446.44;;;19.77;69.08
12868;BME280;33517;49.866;8.320;2022-07-30T00:55:37;100443.59;;;19.90;68.58
12868;BME280;33517;49.866;8.320;2022-07-30T00:58:29;100449.47;;;19.99;68.33
12868;BME280;33517;49.866;8.320;2022-07-30T01:01:21;100452.38;;;20.27;69.02
12868;BME280;33517;49.866;8.320;2022-07-30T01:04:14;100450.41;;;20.64;68.22
12868;BME280;33517;49.866;8.320;2022-07-30T01:07:06;100449.19;;;20.89;66.77
12868;BME280;33517;49.866;8.320;2022-07-30T01:09:58;100449.75;;;20.80;66.83
12868;BME280;33517;49.866;8.320;2022-07-30T01:12:50;100455.53;;;20.77;66.25
12868;BME280;33517;49.866;8.320;2022-07-30T01:15:44;100458.91;;;20.61;67.11
12868;BME280;33517;49.866;8.320;2022-07-30T01:18:36;100460.75;;;20.60;67.28
12868;BME280;33517;49.866;8.320;2022-07-30T01:21:55;100462.44;;;20.43;66.56
12868;BME280;33517;49.866;8.320;2022-07-30T01:24:55;100464.31;;;20.43;68.38
12868;BME280;33517;49.866;8.320;2022-07-30T01:27:53;100468.06;;;20.53;67.79
12868;BME280;33517;49.866;8.320;2022-07-30T01:30:48;100464.84;;;20.63;67.33
12868;BME280;33517;49.866;8.320;2022-07-30T01:33:44;100471.13;;;20.68;66.92
12868;BME280;33517;49.866;8.320;2022-07-30T01:36:36;100469.13;;;20.64;66.82
12868;BME280;33517;49.866;8.320;2022-07-30T01:39:29;100472.72;;;20.58;66.08
12868;BME280;33517;49.866;8.320;2022-07-30T01:42:23;100475.78;;;20.32;66.32
12868;BME280;33517;49.866;8.320;2022-07-30T01:45:18;100484.00;;;20.12;65.98
12868;BME280;33517;49.866;8.320;2022-07-30T01:48:12;100468.63;;;19.78;65.72
12868;BME280;33517;49.866;8.320;2022-07-30T01:51:06;100470.53;;;19.35;65.93
12868;BME280;33517;49.866;8.320;2022-07-30T01:53:59;100479.44;;;18.97;66.33
12868;BME280;33517;49.866;8.320;2022-07-30T01:56:55;100483.06;;;18.85;66.19
12868;BME280;33517;49.866;8.320;2022-07-30T01:59:49;100479.88;;;18.70;65.95
12868;BME280;33517;49.866;8.320;2022-07-30T02:02:43;100481.97;;;18.61;66.67
12868;BME280;33517;49.866;8.320;2022-07-30T02:05:37;100482.41;;;18.58;66.41
12868;BME280;33517;49.866;8.320;2022-07-30T02:08:35;100484.53;;;18.43;66.83
12868;BME280;33517;49.866;8.320;2022-07-30T02:11:29;100488.69;;;18.32;66.50
12868;BME280;33517;49.866;8.320;2022-07-30T02:14:49;100492.94;;;18.40;68.92
12868;BME280;33517;49.866;8.320;2022-07-30T02:17:55;100492.00;;;18.66;69.66
12868;BME280;33517;49.866;8.320;2022-07-30T02:20:59;100488.81;;;18.51;68.01
12868;BME280;33517;49.866;8.320;2022-07-30T02:23:53;100484.94;;;18.47;68.26
12868;BME280;33517;49.866;8.320;2022-07-30T02:26:50;100493.16;;;18.38;67.30
12868;BME280;33517;49.866;8.320;2022-07-30T02:29:45;100486.41;;;18.36;66.95
12868;BME280;33517;49.866;8.320;2022-07-30T02:32:41;100498.72;;;18.30;67.41
12868;BME280;33517;49.866;8.320;2022-07-30T02:35:36;100499.34;;;18.26;67.09
12868;BME280;33517;49.866;8.320;2022-07-30T02:38:29;100504.22;;;18.49;68.95
12868;BME280;33517;49.866;8.320;2022-07-30T02:41:24;100499.66;;;18.87;69.22
12868;BME280;33517;49.866;8.320;2022-07-30T02:44:17;100502.38;;;19.05;68.04
12868;BME280;33517;49.866;8.320;2022-07-30T02:47:11;100507.66;;;19.11;69.56
12868;BME280;33517;49.866;8.320;2022-07-30T02:50:08;100509.56;;;19.54;68.50
12868;BME280;33517;49.866;8.320;2022-07-30T02:53:04;100504.06;;;19.67;69.21
12868;BME280;33517;49.866;8.320;2022-07-30T02:55:58;100517.50;;;19.96;65.39
12868;BME280;33517;49.866;8.320;2022-07-30T02:58:52;100521.38;;;19.82;66.52
12868;BME280;33517;49.866;8.320;2022-07-30T03:01:45;100518.25;;;20.03;67.71
12868;BME280;33517;49.866;8.320;2022-07-30T03:04:38;100515.16;;;20.25;66.04
12868;BME280;33517;49.866;8.320;2022-07-30T03:07:32;100511.78;;;20.29;66.90
12868;BME280;33517;49.866;8.320;2022-07-30T03:10:27;100518.53;;;20.32;66.29
12868;BME280;33517;49.866;8.320;2022-07-30T03:13:22;100511.81;;;20.41;65.75
12868;BME280;33517;49.866;8.320;2022-07-30T03:16:16;100515.63;;;20.33;65.31
12868;BME280;33517;49.866;8.320;2022-07-30T03:19:09;100515.16;;;20.25;64.92
12868;BME280;33517;49.866;8.320;2022-07-30T03:22:03;100512.31;;;20.01;64.86
12868;BME280;33517;49.866;8.320;2022-07-30T03:24:57;100517.81;;;19.88;66.37
12868;BME280;33517;49.866;8.320;2022-07-30T03:27:52;100516.53;;;19.91;65.75
12868;BME280;33517;49.866;8.320;2022-07-30T03:30:45;100524.41;;;19.86;65.32
12868;BME280;33517;49.866;8.320;2022-07-30T03:33:37;100524.00;;;19.46;64.74
12868;BME280;33517;49.866;8.320;2022-07-30T03:36:31;100524.88;;;19.15;64.60
12868;BME280;33517;49.866;8.320;2022-07-30T03:39:23;100527.72;;;18.89;65.38
12868;BME280;33517;49.866;8.320;2022-07-30T03:42:15;100519.50;;;18.60;65.59
12868;BME280;33517;49.866;8.320;2022-07-30T03:45:09;100522.25;;;18.40;65.77
12868;BME280;33517;49.866;8.320;2022-07-30T03:48:03;100522.31;;;18.27;65.79
12868;BME280;33517;49.866;8.320;2022-07-30T03:50:58;100529.16;;;18.10;65.50
12868;BME280;33517;49.866;8.320;2022-07-30T03:53:51;100530.44;;;17.88;66.00
12868;BME280;33517;49.866;8.320;2022-07-30T03:56:44;100543.00;;;17.68;66.58
12868;BME280;33517;49.866;8.320;2022-07-30T03:59:37;100539.31;;;17.56;67.25
12868;BME280;33517;49.866;8.320;2022-07-30T04:02:30;100547.09;;;17.70;71.35
12868;BME280;33517;49.866;8.320;2022-07-30T04:05:22;100540.94;;;18.33;73.15
12868;BME280;33517;49.866;8.320;2022-07-30T04:08:14;100548.31;;;18.76;69.84
12868;BME280;33517;49.866;8.320;2022-07-30T04:11:06;100546.25;;;18.78;68.87
12868;BME280;33517;49.866;8.320;2022-07-30T04:13:58;100555.66;;;18.87;69.81
12868;BME280;33517;49.866;8.320;2022-07-30T04:16:53;100554.84;;;19.11;69.96
12868;BME280;33517;49.866;8.320;2022-07-30T04:19:51;100554.94;;;19.29;69.21
12868;BME280;33517;49.866;8.320;2022-07-30T04:22:45;100562.16;;;19.47;68.83
12868;BME280;33517;49.866;8.320;2022-07-30T04:25:38;100565.03;;;19.70;68.32
12868;BME280;33517;49.866;8.320;2022-07-30T04:28:31;100565.28;;;19.86;67.32
12868;BME280;33517;49.866;8.320;2022-07-30T04:31:23;100569.06;;;19.97;67.03
12868;BME280;33517;49.866;8.320;2022-07-30T04:34:17;100571.69;;;20.03;66.66
12868;BME280;33517;49.866;8.320;2022-07-30T04:37:10;100578.22;;;20.07;66.01
12868;BME280;33517;49.866;8.320;2022-07-30T04:40:03;100574.50;;;20.08;65.86
12868;BME280;33517;49.866;8.320;2022-07-30T04:42:55;100582.38;;;20.22;65.83
12868;BME280;33517;49.866;8.320;2022-07-30T04:45:47;100578.59;;;20.29;65.55
12868;BME280;33517;49.866;8.320;2022-07-30T04:48:39;100584.59;;;20.43;65.00
12868;BME280;33517;49.866;8.320;2022-07-30T04:51:33;100587.78;;;20.51;64.62
12868;BME280;33517;49.866;8.320;2022-07-30T04:54:33;100591.41;;;20.57;64.45
12868;BME280;33517;49.866;8.320;2022-07-30T04:57:29;100595.81;;;20.81;63.99
12868;BME280;33517;49.866;8.320;2022-07-30T05:00:22;100604.84;;;20.98;63.06
12868;BME280;33517;49.866;8.320;2022-07-30T05:03:14;100597.56;;;21.05;62.77
12868;BME280;33517;49.866;8.320;2022-07-30T05:06:06;100606.56;;;21.11;62.24
12868;BME280;33517;49.866;8.320;2022-07-30T05:08:59;100602.22;;;21.09;62.05
12868;BME280;33517;49.866;8.320;2022-07-30T05:11:54;100604.53;;;21.06;62.44
12868;BME280;33517;49.866;8.320;2022-07-30T05:14:46;100607.28;;;20.99;62.54
12868;BME280;33517;49.866;8.320;2022-07-30T05:17:38;100606.03;;;21.02;62.36
12868;BME280;33517;49.866;8.320;2022-07-30T05:20:30;100609.44;;;21.09;62.06
12868;BME280;33517;49.866;8.320;2022-07-30T05:23:22;100611.34;;;21.20;61.74
12868;BME280;33517;49.866;8.320;2022-07-30T05:26:18;100614.13;;;21.25;61.52
12868;BME280;33517;49.866;8.320;2022-07-30T05:29:11;100614.47;;;21.17;61.75
12868;BME280;33517;49.866;8.320;2022-07-30T05:32:03;100622.50;;;21.17;61.61
12868;BME280;33517;49.866;8.320;2022-07-30T05:34:56;100620.31;;;21.26;61.60
12868;BME280;33517;49.866;8.320;2022-07-30T05:37:48;100617.88;;;21.24;61.17
12868;BME280;33517;49.866;8.320;2022-07-30T05:40:40;100614.09;;;21.14;61.67
12868;BME280;33517;49.866;8.320;2022-07-30T05:43:32;100609.69;;;21.19;61.81
12868;BME280;33517;49.866;8.320;2022-07-30T05:46:25;100613.34;;;21.36;60.96
12868;BME280;33517;49.866;8.320;2022-07-30T05:49:18;100612.97;;;21.21;61.00
12868;BME280;33517;49.866;8.320;2022-07-30T05:52:10;100621.94;;;21.27;61.30
12868;BME280;33517;49.866;8.320;2022-07-30T05:55:01;100622.19;;;21.37;61.36
12868;BME280;33517;49.866;8.320;2022-07-30T05:57:53;100624.16;;;21.30;61.29
12868;BME280;33517;49.866;8.320;2022-07-30T06:00:46;100618.63;;;21.54;61.13
12868;BME280;33517;49.866;8.320;2022-07-30T06:03:39;100621.66;;;21.69;60.75
12868;BME280;33517;49.866;8.320;2022-07-30T06:06:31;100624.81;;;21.89;60.41
12868;BME280;33517;49.866;8.320;2022-07-30T06:09:23;100629.97;;;22.14;59.80
12868;BME280;33517;49.866;8.320;2022-07-30T06:12:15;100626.81;;;22.68;58.90
12868;BME280;33517;49.866;8.320;2022-07-30T06:15:08;100624.22;;;24.78;53.93
12868;BME280;33517;49.866;8.320;2022-07-30T06:18:00;100634.72;;;27.65;46.50
12868;BME280;33517;49.866;8.320;2022-07-30T06:20:53;100635.34;;;29.15;42.27
12868;BME280;33517;49.866;8.320;2022-07-30T06:23:45;100637.72;;;29.11;40.56
12868;BME280;33517;49.866;8.320;2022-07-30T06:26:37;100635.22;;;29.92;40.38
12868;BME280;33517;49.866;8.320;2022-07-30T06:29:29;100632.06;;;30.74;38.86
12868;BME280;33517;49.866;8.320;2022-07-30T06:32:21;100630.19;;;31.95;37.51
12868;BME280;33517;49.866;8.320;2022-07-30T06:35:12;100637.75;;;32.39;35.72
12868;BME280;33517;49.866;8.320;2022-07-30T06:38:06;100647.81;;;33.28;34.83
12868;BME280;33517;49.866;8.320;2022-07-30T06:40:58;100646.44;;;32.68;33.98
12868;BME280;33517;49.866;8.320;2022-07-30T06:43:50;100646.72;;;32.94;34.87
12868;BME280;33517;49.866;8.320;2022-07-30T06:46:41;100647.84;;;33.51;33.59
12868;BME280;33517;49.866;8.320;2022-07-30T06:49:34;100647.38;;;33.79;33.23
12868;BME280;33517;49.866;8.320;2022-07-30T06:52:26;100656.22;;;33.85;32.56
12868;BME280;33517;49.866;8.320;2022-07-30T06:55:20;100652.31;;;33.46;31.96
12868;BME280;33517;49.866;8.320;2022-07-30T06:58:12;100655.34;;;30.62;35.66
12868;BME280;33517;49.866;8.320;2022-07-30T07:01:04;100654.66;;;32.90;34.00
12868;BME280;33517;49.866;8.320;2022-07-30T07:03:56;100650.84;;;34.97;31.40
12868;BME280;33517;49.866;8.320;2022-07-30T07:06:48;100655.16;;;34.73;31.22
12868;BME280;33517;49.866;8.320;2022-07-30T07:09:40;100658.44;;;33.30;32.35
12868;BME280;33517;49.866;8.320;2022-07-30T07:12:33;100653.47;;;33.76;31.80
12868;BME280;33517;49.866;8.320;2022-07-30T07:15:25;100647.94;;;33.45;31.93
12868;BME280;33517;49.866;8.320;2022-07-30T07:18:17;100656.34;;;32.50;33.74
12868;BME280;33517;49.866;8.320;2022-07-30T07:21:09;100657.72;;;32.89;32.18
12868;BME280;33517;49.866;8.320;2022-07-30T07:24:01;100660.38;;;35.00;30.50
12868;BME280;33517;49.866;8.320;2022-07-30T07:26:53;100654.97;;;33.02;32.55
12868;BME280;33517;49.866;8.320;2022-07-30T07:29:46;100659.56;;;35.08;29.61
12868;BME280;33517;49.866;8.320;2022-07-30T07:32:38;100655.41;;;33.54;30.71
12868;BME280;33517;49.866;8.320;2022-07-30T07:35:29;100656.78;;;31.34;34.21
12868;BME280;33517;49.866;8.320;2022-07-30T07:38:22;100659.69;;;32.75;32.53
12868;BME280;33517;49.866;8.320;2022-07-30T07:41:14;100650.03;;;32.91;32.88
12868;BME280;33517;49.866;8.320;2022-07-30T07:44:06;100658.53;;;34.70;30.48
12868;BME280;33517;49.866;8.320;2022-07-30T07:46:59;100655.63;;;36.24;28.11
12868;BME280;33517;49.866;8.320;2022-07-30T07:49:53;100657.66;;;36.06;28.04
12868;BME280;33517;49.866;8.320;2022-07-30T07:52:45;100656.34;;;33.49;30.56
12868;BME280;33517;49.866;8.320;2022-07-30T07:55:37;100661.50;;;34.43;30.06
12868;BME280;33517;49.866;8.320;2022-07-30T07:58:29;100660.91;;;36.46;28.37
12868;BME280;33517;49.866;8.320;2022-07-30T08:01:21;100672.03;;;38.66;25.32
12868;BME280;33517;49.866;8.320;2022-07-30T08:04:14;100667.56;;;38.74;25.10
12868;BME280;33517;49.866;8.320;2022-07-30T08:07:06;100666.34;;;37.90;26.02
12868;BME280;33517;49.866;8.320;2022-07-30T08:09:58;100667.41;;;38.82;25.21
12868;BME280;33517;49.866;8.320;2022-07-30T08:12:50;100662.50;;;38.76;24.34
12868;BME280;33517;49.866;8.320;2022-07-30T08:15:42;100673.63;;;39.19;24.26
12868;BME280;33517;49.866;8.320;2022-07-30T08:18:34;100667.88;;;38.60;24.22
12868;BME280;33517;49.866;8.320;2022-07-30T08:21:27;100667.31;;;38.42;24.08
12868;BME280;33517;49.866;8.320;2022-07-30T08:24:19;100659.63;;;38.60;24.64
12868;BME280;33517;49.866;8.320;2022-07-30T08:27:11;100658.59;;;38.28;24.09
12868;BME280;33517;49.866;8.320;2022-07-30T08:30:04;100665.25;;;38.76;24.71
12868;BME280;33517;49.866;8.320;2022-07-30T08:32:56;100663.63;;;39.97;23.21
12868;BME280;33517;49.866;8.320;2022-07-30T08:35:48;100659.63;;;40.10;23.20
12868;BME280;33517;49.866;8.320;2022-07-30T08:38:41;100664.78;;;40.12;23.15
12868;BME280;33517;49.866;8.320;2022-07-30T08:41:34;100659.16;;;41.09;22.85
12868;BME280;33517;49.866;8.320;2022-07-30T08:44:27;100659.53;;;41.87;21.31
12868;BME280;33517;49.866;8.320;2022-07-30T08:47:24;100658.63;;;40.18;23.31
12868;BME280;33517;49.866;8.320;2022-07-30T08:50:19;100658.22;;;38.78;23.71
12868;BME280;33517;49.866;8.320;2022-07-30T08:53:12;100650.88;;;37.98;24.62
12868;BME280;33517;49.866;8.320;2022-07-30T08:56:06;100649.91;;;38.26;24.43
12868;BME280;33517;49.866;8.320;2022-07-30T08:58:58;100651.34;;;38.72;23.87
12868;BME280;33517;49.866;8.320;2022-07-30T09:01:50;100654.53;;;39.97;22.66
12868;BME280;33517;49.866;8.320;2022-07-30T09:04:42;100652.97;;;39.96;22.89
12868;BME280;33517;49.866;8.320;2022-07-30T09:07:35;100654.28;;;40.02;22.51
12868;BME280;33517;49.866;8.320;2022-07-30T09:10:27;100656.56;;;40.31;22.32
12868;BME280;33517;49.866;8.320;2022-07-30T09:13:24;100657.28;;;38.98;23.21
12868;BME280;33517;49.866;8.320;2022-07-30T09:16:18;100661.41;;;38.92;23.68
12868;BME280;33517;49.866;8.320;2022-07-30T09:19:13;100650.91;;;40.39;22.05
12868;BME280;33517;49.866;8.320;2022-07-30T09:22:05;100654.41;;;37.41;23.92
12868;BME280;33517;49.866;8.320;2022-07-30T09:24:57;100652.66;;;37.16;24.16
12868;BME280;33517;49.866;8.320;2022-07-30T09:27:49;100655.75;;;37.15;24.58
12868;BME280;33517;49.866;8.320;2022-07-30T09:30:44;100658.09;;;38.99;22.34
12868;BME280;33517;49.866;8.320;2022-07-30T09:33:39;100647.56;;;37.59;23.96
12868;BME280;33517;49.866;8.320;2022-07-30T09:36:31;100655.03;;;39.43;22.47
12868;BME280;33517;49.866;8.320;2022-07-30T09:39:32;100653.06;;;38.89;22.75
12868;BME280;33517;49.866;8.320;2022-07-30T09:42:26;100658.25;;;38.54;22.69
12868;BME280;33517;49.866;8.320;2022-07-30T09:45:18;100650.19;;;40.11;22.06
12868;BME280;33517;49.866;8.320;2022-07-30T09:48:20;100656.22;;;40.83;21.26
12868;BME280;33517;49.866;8.320;2022-07-30T09:51:12;100653.56;;;39.18;21.99
12868;BME280;33517;49.866;8.320;2022-07-30T09:54:04;100655.25;;;39.23;22.38
12868;BME280;33517;49.866;8.320;2022-07-30T09:57:03;100649.31;;;39.21;22.55
12868;BME280;33517;49.866;8.320;2022-07-30T09:59:56;100643.03;;;40.57;21.75
12868;BME280;33517;49.866;8.320;2022-07-30T10:02:48;100638.16;;;40.85;20.37
12868;BME280;33517;49.866;8.320;2022-07-30T10:05:50;100641.84;;;41.12;20.19
12868;BME280;33517;49.866;8.320;2022-07-30T10:08:44;100641.75;;;40.70;20.45
12868;BME280;33517;49.866;8.320;2022-07-30T10:11:36;100643.38;;;41.67;20.86
12868;BME280;33517;49.866;8.320;2022-07-30T10:14:32;100642.94;;;42.36;19.77
12868;BME280;33517;49.866;8.320;2022-07-30T10:17:24;100645.28;;;42.86;18.78
12868;BME280;33517;49.866;8.320;2022-07-30T10:20:16;100636.13;;;43.12;19.17
12868;BME280;33517;49.866;8.320;2022-07-30T10:23:10;100633.72;;;40.30;19.53
12868;BME280;33517;49.866;8.320;2022-07-30T10:26:03;100629.91;;;40.19;20.94
12868;BME280;33517;49.866;8.320;2022-07-30T10:28:55;100624.28;;;40.16;20.48
12868;BME280;33517;49.866;8.320;2022-07-30T10:31:48;100621.75;;;40.58;20.23
12868;BME280;33517;49.866;8.320;2022-07-30T10:34:41;100617.53;;;37.42;23.83
12868;BME280;33517;49.866;8.320;2022-07-30T10:37:34;100617.31;;;37.80;23.41
12868;BME280;33517;49.866;8.320;2022-07-30T10:40:32;100629.81;;;39.41;21.78
12868;BME280;33517;49.866;8.320;2022-07-30T10:43:43;100622.44;;;40.04;19.94
12868;BME280;33517;49.866;8.320;2022-07-30T10:46:47;100622.63;;;40.11;21.14
12868;BME280;33517;49.866;8.320;2022-07-30T10:50:07;100622.16;;;40.25;20.20
12868;BME280;33517;49.866;8.320;2022-07-30T10:53:00;100627.38;;;39.24;21.63
12868;BME280;33517;49.866;8.320;2022-07-30T10:56:09;100625.50;;;39.72;21.03
12868;BME280;33517;49.866;8.320;2022-07-30T10:59:04;100618.25;;;39.79;20.31
12868;BME280;33517;49.866;8.320;2022-07-30T11:02:07;100614.44;;;40.65;20.45
12868;BME280;33517;49.866;8.320;2022-07-30T11:05:21;100614.78;;;37.42;21.63
12868;BME280;33517;49.866;8.320;2022-07-30T11:08:31;100609.53;;;37.94;22.30
12868;BME280;33517;49.866;8.320;2022-07-30T11:11:45;100617.69;;;38.51;22.33
12868;BME280;33517;49.866;8.320;2022-07-30T11:14:56;100616.41;;;38.60;19.99
12868;BME280;33517;49.866;8.320;2022-07-30T11:17:59;100607.69;;;38.70;21.20
12868;BME280;33517;49.866;8.320;2022-07-30T11:21:15;100599.22;;;38.03;20.68
12868;BME280;33517;49.866;8.320;2022-07-30T11:24:41;100603.88;;;37.66;19.31
12868;BME280;33517;49.866;8.320;2022-07-30T11:27:37;100601.97;;;39.31;20.30
12868;BME280;33517;49.866;8.320;2022-07-30T11:30:31;100605.28;;;39.95;18.98
12868;BME280;33517;49.866;8.320;2022-07-30T11:33:24;100606.84;;;39.65;19.17
12868;BME280;33517;49.866;8.320;2022-07-30T11:36:17;100601.03;;;40.48;19.41
12868;BME280;33517;49.866;8.320;2022-07-30T11:39:09;100601.25;;;40.93;19.45
12868;BME280;33517;49.866;8.320;2022-07-30T11:42:24;100597.06;;;39.83;19.10
12868;BME280;33517;49.866;8.320;2022-07-30T11:45:26;100588.78;;;40.65;18.62
12868;BME280;33517;49.866;8.320;2022-07-30T11:48:19;100579.66;;;39.95;19.22
12868;BME280;33517;49.866;8.320;2022-07-30T11:51:11;100592.63;;;40.60;18.83
12868;BME280;33517;49.866;8.320;2022-07-30T11:54:06;100590.34;;;41.42;16.96
12868;BME280;33517;49.866;8.320;2022-07-30T11:56:59;100590.59;;;39.60;20.38
12868;BME280;33517;49.866;8.320;2022-07-30T11:59:52;100591.06;;;38.55;21.39
12868;BME280;33517;49.866;8.320;2022-07-30T12:02:46;100586.06;;;38.45;21.09
12868;BME280;33517;49.866;8.320;2022-07-30T12:05:39;100586.38;;;38.95;21.12
12868;BME280;33517;49.866;8.320;2022-07-30T12:08:38;100586.63;;;39.45;20.35
12868;BME280;33517;49.866;8.320;2022-07-30T12:11:31;100594.91;;;38.26;20.51
12868;BME280;33517;49.866;8.320;2022-07-30T12:14:23;100580.78;;;37.35;21.78
12868;BME280;33517;49.866;8.320;2022-07-30T12:17:15;100579.13;;;37.54;21.61
12868;BME280;33517;49.866;8.320;2022-07-30T12:20:14;100568.66;;;37.93;21.04
12868;BME280;33517;49.866;8.320;2022-07-30T12:23:10;100568.66;;;38.05;20.22
12868;BME280;33517;49.866;8.320;2022-07-30T12:26:03;100567.22;;;37.74;21.27
12868;BME280;33517;49.866;8.320;2022-07-30T12:28:56;100566.13;;;37.75;20.92
12868;BME280;33517;49.866;8.320;2022-07-30T12:31:51;100575.44;;;38.83;19.64
12868;BME280;33517;49.866;8.320;2022-07-30T12:34:52;100565.44;;;39.62;19.12
12868;BME280;33517;49.866;8.320;2022-07-30T12:38:02;100551.28;;;39.79;19.20
12868;BME280;33517;49.866;8.320;2022-07-30T12:40:57;100562.53;;;39.27;19.05
12868;BME280;33517;49.866;8.320;2022-07-30T12:43:52;100545.66;;;39.01;18.87
12868;BME280;33517;49.866;8.320;2022-07-30T12:46:44;100557.19;;;38.15;18.49
12868;BME280;33517;49.866;8.320;2022-07-30T12:49:36;100555.91;;;38.36;19.27
12868;BME280;33517;49.866;8.320;2022-07-30T12:52:29;100553.09;;;37.97;20.51
12868;BME280;33517;49.866;8.320;2022-07-30T12:55:30;100554.34;;;36.97;20.87
12868;BME280;33517;49.866;8.320;2022-07-30T12:58:23;100562.97;;;34.65;23.49
12868;BME280;33517;49.866;8.320;2022-07-30T13:01:15;100550.41;;;33.51;23.11
12868;BME280;33517;49.866;8.320;2022-07-30T13:04:08;100539.53;;;33.15;23.29
12868;BME280;33517;49.866;8.320;2022-07-30T13:07:03;100547.25;;;32.42;25.14
12868;BME280;33517;49.866;8.320;2022-07-30T13:10:06;100551.63;;;31.75;26.39
12868;BME280;33517;49.866;8.320;2022-07-30T13:13:00;100539.31;;;31.32;25.35
12868;BME280;33517;49.866;8.320;2022-07-30T13:15:57;100542.97;;;31.09;26.89
12868;BME280;33517;49.866;8.320;2022-07-30T13:18:49;100531.16;;;30.62;25.79
12868;BME280;33517;49.866;8.320;2022-07-30T13:21:41;100535.13;;;30.70;27.89
12868;BME280;33517;49.866;8.320;2022-07-30T13:24:33;100543.38;;;31.02;26.30
12868;BME280;33517;49.866;8.320;2022-07-30T13:27:25;100539.47;;;31.22;25.35
12868;BME280;33517;49.866;8.320;2022-07-30T13:30:20;100535.00;;;31.12;26.67
12868;BME280;33517;49.866;8.320;2022-07-30T13:33:12;100528.28;;;30.91;27.69
12868;BME280;33517;49.866;8.320;2022-07-30T13:36:04;100535.97;;;30.89;27.97
12868;BME280;33517;49.866;8.320;2022-07-30T13:38:56;100533.97;;;30.57;28.22
12868;BME280;33517;49.866;8.320;2022-07-30T13:41:48;100535.44;;;30.50;27.46
12868;BME280;33517;49.866;8.320;2022-07-30T13:44:40;100532.03;;;30.76;27.63
12868;BME280;33517;49.866;8.320;2022-07-30T13:47:33;100538.31;;;30.58;28.09
12868;BME280;33517;49.866;8.320;2022-07-30T13:50:25;100527.72;;;30.57;28.89
12868;BME280;33517;49.866;8.320;2022-07-30T13:53:17;100524.34;;;30.83;28.77
12868;BME280;33517;49.866;8.320;2022-07-30T13:56:09;100527.72;;;30.75;28.40
12868;BME280;33517;49.866;8.320;2022-07-30T13:59:01;100526.47;;;30.87;28.04
12868;BME280;33517;49.866;8.320;2022-07-30T14:01:54;100522.75;;;30.82;27.16
12868;BME280;33517;49.866;8.320;2022-07-30T14:04:48;100518.22;;;31.24;27.76
12868;BME280;33517;49.866;8.320;2022-07-30T14:07:40;100521.50;;;31.07;28.09
12868;BME280;33517;49.866;8.320;2022-07-30T14:10:32;100510.75;;;30.83;27.30
12868;BME280;33517;49.866;8.320;2022-07-30T14:13:24;100513.75;;;30.82;27.27
12868;BME280;33517;49.866;8.320;2022-07-30T14:16:16;100510.28;;;31.14;27.12
12868;BME280;33517;49.866;8.320;2022-07-30T14:19:09;100510.88;;;31.24;27.75
12868;BME280;33517;49.866;8.320;2022-07-30T14:22:02;100505.97;;;30.75;28.86
12868;BME280;33517;49.866;8.320;2022-07-30T14:24:54;100513.47;;;30.46;28.38
12868;BME280;33517;49.866;8.320;2022-07-30T14:27:46;100509.59;;;30.52;29.12
12868;BME280;33517;49.866;8.320;2022-07-30T14:30:38;100510.47;;;30.48;29.13
12868;BME280;33517;49.866;8.320;2022-07-30T14:33:30;100506.13;;;30.65;28.17
12868;BME280;33517;49.866;8.320;2022-07-30T14:36:22;100502.06;;;30.81;27.38
12868;BME280;33517;49.866;8.320;2022-07-30T14:39:19;100502.75;;;30.92;27.77
12868;BME280;33517;49.866;8.320;2022-07-30T14:42:11;100504.03;;;30.76;27.00
12868;BME280;33517;49.866;8.320;2022-07-30T14:45:03;100508.63;;;30.62;28.02
12868;BME280;33517;49.866;8.320;2022-07-30T14:47:55;100511.69;;;30.74;28.89
12868;BME280;33517;49.866;8.320;2022-07-30T14:50:47;100520.50;;;30.47;28.26
12868;BME280;33517;49.866;8.320;2022-07-30T14:53:39;100508.25;;;30.50;27.38
12868;BME280;33517;49.866;8.320;2022-07-30T14:56:32;100509.19;;;30.59;28.62
12868;BME280;33517;49.866;8.320;2022-07-30T14:59:24;100503.19;;;30.43;26.71
12868;BME280;33517;49.866;8.320;2022-07-30T15:02:17;100512.97;;;30.44;28.20
12868;BME280;33517;49.866;8.320;2022-07-30T15:05:09;100506.69;;;30.62;28.02
12868;BME280;33517;49.866;8.320;2022-07-30T15:08:00;100511.56;;;30.65;28.23
12868;BME280;33517;49.866;8.320;2022-07-30T15:10:52;100507.53;;;30.44;28.99